Time;durP1;ratioP1;P1;durP2;ratioP2;P2;SDS_P1;SDS_P2;PMS_P1;PMS_P2;Temp;Humidity;BMP_temperature;BMP_pressure;BME280_temperature;BME280_humidity;BME280_pressure;Samples;Min_cycle;Max_cycle;Signal;HPM_P1;HPM_P2
2021/12/11 00:00:19;;;;;;;4.97;2.88;;;;;;;0.60;100.00;94448.59;1024772;28;20218;-71
2021/12/11 00:00:56;;;;;;;6.24;3.04;;;;;;;0.63;100.00;94458.44;1026200;28;20031;-72
2021/12/11 00:01:39;;;;;;;9.04;3.06;;;;;;;0.68;100.00;94455.97;1027083;28;20026;-71
2021/12/11 00:02:22;;;;;;;5.82;3.06;;;;;;;0.68;100.00;94453.38;1025836;28;20026;-73
2021/12/11 00:03:26;;;;;;;7.26;3.38;;;;;;;0.66;100.00;94452.81;1030013;28;20497;-72
2021/12/11 00:03:59;;;;;;;6.18;2.72;;;;;;;0.71;100.00;94462.47;1023012;29;20042;-72
2021/12/11 00:04:33;;;;;;;3.46;2.50;;;;;;;0.60;100.00;94443.41;1025927;28;20114;-69
2021/12/11 00:05:04;;;;;;;6.12;3.10;;;;;;;0.60;100.00;94451.16;1028144;28;20062;-71
2021/12/11 00:05:35;;;;;;;8.10;3.58;;;;;;;0.57;100.00;94454.22;1031947;28;20018;-71
2021/12/11 00:06:18;;;;;;;8.20;2.90;;;;;;;0.62;100.00;94449.13;1031123;28;20117;-73
2021/12/11 00:06:52;;;;;;;6.54;2.68;;;;;;;0.69;100.00;94467.06;1026312;28;20050;-72
2021/12/11 00:07:25;;;;;;;3.66;2.38;;;;;;;0.62;100.00;94454.31;1025982;28;20023;-72
2021/12/11 00:07:55;;;;;;;5.94;2.50;;;;;;;0.67;100.00;94454.41;1023071;29;20031;-71
2021/12/11 00:08:27;;;;;;;3.92;2.50;;;;;;;0.65;100.00;94456.44;1019919;28;20028;-74
2021/12/11 00:09:00;;;;;;;4.82;2.88;;;;;;;0.68;100.00;94461.13;1031464;28;20042;-71
2021/12/11 00:09:43;;;;;;;5.86;3.18;;;;;;;0.68;100.00;94462.94;1027180;28;20078;-71
2021/12/11 00:10:35;;;;;;;3.36;2.08;;;;;;;0.71;100.00;94467.63;1030655;28;20034;-74
2021/12/11 00:11:12;;;;;;;4.20;2.22;;;;;;;0.69;100.00;94470.44;1031798;28;20499;-72
2021/12/11 00:11:44;;;;;;;3.52;2.20;;;;;;;0.70;100.00;94477.19;1027359;28;20033;-72
2021/12/11 00:12:27;;;;;;;4.16;2.24;;;;;;;0.62;100.00;94454.31;1027094;28;20229;-73
2021/12/11 00:13:00;;;;;;;7.14;2.90;;;;;;;0.74;100.00;94476.69;1031576;28;20523;-72
2021/12/11 00:13:31;;;;;;;3.80;2.28;;;;;;;0.72;100.00;94473.56;1030051;28;20022;-71
2021/12/11 00:14:04;;;;;;;4.20;2.30;;;;;;;0.67;100.00;94467.31;1023307;29;20166;-71
2021/12/11 00:14:36;;;;;;;5.56;2.62;;;;;;;0.70;100.00;94479.75;1026990;28;20570;-72
2021/12/11 00:15:14;;;;;;;3.00;2.10;;;;;;;0.73;100.00;94483.66;1027081;28;20484;-72
2021/12/11 00:15:45;;;;;;;3.70;2.50;;;;;;;0.68;100.00;94474.03;1027627;28;20019;-71
2021/12/11 00:16:18;;;;;;;5.12;2.48;;;;;;;0.70;100.00;94476.38;1025646;28;20026;-72
2021/12/11 00:16:49;;;;;;;5.36;2.36;;;;;;;0.70;100.00;94482.34;1024653;28;20023;-72
2021/12/11 00:17:22;;;;;;;5.42;2.38;;;;;;;0.68;100.00;94481.00;1028247;28;20029;-74
2021/12/11 00:18:00;;;;;;;4.62;2.06;;;;;;;0.69;100.00;94485.91;1030206;28;20062;-71
2021/12/11 00:18:30;;;;;;;5.52;2.70;;;;;;;0.68;100.00;94488.75;1029336;28;20023;-70
2021/12/11 00:19:05;;;;;;;4.80;2.78;;;;;;;0.66;100.00;94483.78;1031018;28;20033;-72
2021/12/11 00:19:37;;;;;;;8.10;2.92;;;;;;;0.59;100.00;94483.16;1025462;28;20034;-71
2021/12/11 00:20:21;;;;;;;6.58;2.98;;;;;;;0.63;100.00;94486.84;1027995;28;20604;-72
2021/12/11 00:21:08;;;;;;;4.70;2.46;;;;;;;0.64;100.00;94485.06;1030925;28;20113;-73
2021/12/11 00:21:39;;;;;;;3.34;2.36;;;;;;;0.61;100.00;94488.88;1030899;28;20041;-71
2021/12/11 00:22:14;;;;;;;6.98;2.80;;;;;;;0.61;100.00;94498.44;1028963;28;20046;-71
2021/12/11 00:22:44;;;;;;;7.08;2.70;;;;;;;0.63;100.00;94486.84;1034757;28;20041;-72
2021/12/11 00:23:25;;;;;;;4.80;2.95;;;;;;;0.53;100.00;94472.97;1031022;28;20034;-72
2021/12/11 00:24:04;;;;;;;4.97;2.80;;;;;;;0.54;100.00;94485.66;1028645;28;20038;-73
2021/12/11 00:24:36;;;;;;;7.28;2.90;;;;;;;0.52;100.00;94476.56;1026330;28;20026;-70
2021/12/11 00:25:09;;;;;;;5.54;3.30;;;;;;;0.57;100.00;94479.22;1026774;28;20038;-72
2021/12/11 00:25:42;;;;;;;3.30;2.20;;;;;;;0.66;100.00;94495.91;1022148;28;20035;-72
2021/12/11 00:26:13;;;;;;;5.04;2.42;;;;;;;0.64;100.00;94498.75;1023040;29;20039;-72
2021/12/11 00:26:52;;;;;;;2.65;1.75;;;;;;;0.61;100.00;94494.03;1030587;28;20062;-71
2021/12/11 00:27:26;;;;;;;7.52;2.54;;;;;;;0.59;100.00;94488.31;1026391;28;20117;-73
2021/12/11 00:28:03;;;;;;;2.74;2.04;;;;;;;0.66;100.00;94496.69;1022951;29;20031;-72
2021/12/11 00:28:43;;;;;;;5.76;2.04;;;;;;;0.67;100.00;94498.28;1026936;28;20070;-72
2021/12/11 00:29:14;;;;;;;3.40;2.67;;;;;;;0.56;100.00;94481.03;1026007;28;20034;-71
2021/12/11 00:29:44;;;;;;;4.46;2.76;;;;;;;0.60;100.00;94497.63;1026560;28;20034;-74
2021/12/11 00:30:24;;;;;;;6.15;2.30;;;;;;;0.57;100.00;94492.94;1030876;28;20053;-73
2021/12/11 00:30:54;;;;;;;4.30;2.20;;;;;;;0.60;100.00;94487.28;1027847;28;20054;-73
2021/12/11 00:31:27;;;;;;;3.97;2.40;;;;;;;0.64;100.00;94506.50;1022885;29;20150;-71
2021/12/11 00:32:03;;;;;;;6.48;2.46;;;;;;;0.58;100.00;94489.34;1026096;28;20023;-70
2021/12/11 00:32:36;;;;;;;3.00;2.12;;;;;;;0.60;100.00;94491.69;1034466;28;20029;-72
2021/12/11 00:33:11;;;;;;;4.20;2.40;;;;;;;0.66;100.00;94501.88;1036324;28;20018;-71
2021/12/11 00:33:42;;;;;;;4.28;2.38;;;;;;;0.58;100.00;94499.66;1039188;28;20013;-71
2021/12/11 00:34:13;;;;;;;4.68;2.33;;;;;;;0.55;100.00;94484.63;1035063;28;20530;-72
2021/12/11 00:34:44;;;;;;;6.48;2.38;;;;;;;0.54;100.00;94497.75;1033915;28;20519;-72
2021/12/11 00:35:17;;;;;;;4.60;2.85;;;;;;;0.58;100.00;94499.66;1022797;29;20024;-72
2021/12/11 00:35:47;;;;;;;7.44;2.90;;;;;;;0.54;100.00;94493.41;1014810;29;20048;-72
2021/12/11 00:36:20;;;;;;;5.43;2.47;;;;;;;0.52;100.00;94490.25;1027065;28;20604;-71
2021/12/11 00:36:54;;;;;;;6.62;2.80;;;;;;;0.54;100.00;94498.56;1029129;28;20567;-71
2021/12/11 00:37:27;;;;;;;6.16;2.50;;;;;;;0.63;100.00;94502.31;1034842;28;20116;-71
2021/12/11 00:38:12;;;;;;;2.90;2.06;;;;;;;0.69;100.00;94496.25;1028530;28;20038;-72
2021/12/11 00:38:48;;;;;;;6.20;2.60;;;;;;;0.70;100.00;94499.59;1018963;29;20079;-72
2021/12/11 00:39:19;;;;;;;5.06;1.92;;;;;;;0.62;100.00;94490.44;1018918;29;20043;-73
2021/12/11 00:39:52;;;;;;;5.38;2.28;;;;;;;0.55;100.00;94479.47;1026945;28;20034;-72
2021/12/11 00:40:24;;;;;;;5.58;2.20;;;;;;;0.62;100.00;94494.81;1034861;28;20029;-72
2021/12/11 00:40:55;;;;;;;4.96;2.32;;;;;;;0.68;100.00;94512.75;1026902;28;20030;-72
2021/12/11 00:41:25;;;;;;;4.32;1.92;;;;;;;0.68;100.00;94504.22;1027376;28;20034;-72
2021/12/11 00:41:58;;;;;;;6.78;2.70;;;;;;;0.69;100.00;94516.13;1026787;28;20215;-73
2021/12/11 00:42:33;;;;;;;5.38;2.90;;;;;;;0.67;100.00;94507.81;1027417;28;20432;-73
2021/12/11 00:43:05;;;;;;;4.56;2.08;;;;;;;0.60;100.00;94507.16;1026943;28;20034;-72
2021/12/11 00:43:36;;;;;;;6.74;2.54;;;;;;;0.59;100.00;94508.97;1018574;29;20075;-73
2021/12/11 00:44:06;;;;;;;4.45;3.00;;;;;;;0.54;100.00;94488.25;1022895;29;20050;-71
2021/12/11 00:44:39;;;;;;;6.65;2.47;;;;;;;0.58;100.00;94504.81;1026358;28;20023;-72
2021/12/11 00:45:15;;;;;;;5.48;3.20;;;;;;;0.49;100.00;94501.03;1026631;28;20046;-72
2021/12/11 00:45:46;;;;;;;3.46;2.08;;;;;;;0.62;100.00;94511.09;1022679;29;20023;-71
2021/12/11 00:46:22;;;;;;;5.38;2.24;;;;;;;0.66;100.00;94512.19;1019023;29;20454;-74
2021/12/11 00:46:53;;;;;;;4.12;2.14;;;;;;;0.66;100.00;94517.34;1022369;28;20078;-73
2021/12/11 00:47:33;;;;;;;2.83;2.13;;;;;;;0.66;100.00;94517.34;1026813;28;20120;-71
2021/12/11 00:48:08;;;;;;;;;;;;;;;0.70;100.00;94523.63;1023265;29;20058;-72
2021/12/11 00:48:39;;;;;;;5.02;2.34;;;;;;;0.69;100.00;94522.06;1021148;28;19914;-73
2021/12/11 00:49:11;;;;;;;4.66;2.20;;;;;;;0.56;100.00;94501.69;1020750;29;20090;-72
2021/12/11 00:50:04;;;;;;;3.92;2.56;;;;;;;0.54;100.00;94514.06;1023798;28;20038;-72
2021/12/11 00:50:41;;;;;;;6.62;2.10;;;;;;;0.54;100.00;94511.47;1021623;29;20035;-71
2021/12/11 00:51:14;;;;;;;4.18;2.40;;;;;;;0.60;100.00;94525.22;1026953;28;20033;-71
2021/12/11 00:51:51;;;;;;;4.08;2.40;;;;;;;0.51;100.00;94521.47;1026197;28;20030;-71
2021/12/11 00:52:40;;;;;;;5.54;2.34;;;;;;;0.61;100.00;94530.19;1024682;28;20035;-72
2021/12/11 00:53:16;;;;;;;3.94;2.22;;;;;;;0.61;100.00;94535.34;1034164;28;20034;-71
2021/12/11 00:53:56;;;;;;;5.34;2.08;;;;;;;0.60;100.00;94528.59;1036298;28;20067;-71
2021/12/11 00:54:27;;;;;;;4.03;2.10;;;;;;;0.61;100.00;94530.19;1035036;28;20034;-73
2021/12/11 00:54:57;;;;;;;4.13;2.22;;;;;;;0.62;100.00;94530.97;1026187;28;20520;-72
2021/12/11 00:55:32;;;;;;;2.65;2.03;;;;;;;0.63;100.00;94542.84;1028016;28;20477;-71
2021/12/11 00:56:28;;;;;;;2.44;1.88;;;;;;;0.65;100.00;94538.25;1026843;28;20113;-71
2021/12/11 00:56:58;;;;;;;2.32;2.10;;;;;;;0.65;100.00;94539.03;1030301;28;20042;-71
2021/12/11 00:57:32;;;;;;;5.02;2.20;;;;;;;0.63;100.00;94532.50;1026989;28;20114;-71
2021/12/11 00:58:04;;;;;;;6.12;2.32;;;;;;;0.59;100.00;94539.94;1026710;28;20031;-72
2021/12/11 00:58:36;;;;;;;5.28;2.30;;;;;;;0.60;100.00;94540.72;1023600;28;20031;-71
2021/12/11 00:59:09;;;;;;;5.66;2.00;;;;;;;0.55;100.00;94533.66;1023702;28;20536;-72
2021/12/11 00:59:40;;;;;;;6.04;2.36;;;;;;;0.54;100.00;94532.13;1026897;28;20022;-72
2021/12/11 01:00:18;;;;;;;6.28;2.45;;;;;;;0.52;100.00;94526.38;1025695;28;20085;-71
2021/12/11 01:01:12;;;;;;;3.64;1.98;;;;;;;0.65;100.00;94541.59;1022902;29;20090;-72
2021/12/11 01:01:51;;;;;;;5.52;2.16;;;;;;;0.61;100.00;94540.50;1025992;28;20571;-73
2021/12/11 01:02:23;;;;;;;5.66;2.04;;;;;;;0.64;100.00;94545.22;1030764;28;20563;-71
2021/12/11 01:02:53;;;;;;;4.86;2.92;;;;;;;0.62;100.00;94547.22;1030919;28;20033;-71
2021/12/11 01:03:31;;;;;;;4.70;2.22;;;;;;;0.60;100.00;94541.50;1026453;28;20042;-71
2021/12/11 01:04:11;;;;;;;3.30;2.00;;;;;;;0.54;100.00;94537.28;1026959;28;20551;-70
2021/12/11 01:04:42;;;;;;;4.05;2.15;;;;;;;0.52;100.00;94538.50;1028590;28;20026;-72
2021/12/11 01:05:12;;;;;;;3.30;2.30;;;;;;;0.55;100.00;94538.84;1031172;28;20030;-72
2021/12/11 01:05:44;;;;;;;3.40;2.50;;;;;;;0.46;100.00;94538.41;1026868;28;20027;-71
2021/12/11 01:06:24;;;;;;;2.18;1.96;;;;;;;0.53;100.00;94538.25;1026956;28;20297;-73
2021/12/11 01:07:00;;;;;;;6.35;2.17;;;;;;;0.59;100.00;94552.84;1025303;28;20043;-70
2021/12/11 01:07:32;;;;;;;4.24;2.10;;;;;;;0.58;100.00;94550.50;1032803;28;20029;-72
2021/12/11 01:08:12;;;;;;;4.18;2.30;;;;;;;0.55;100.00;94548.38;1022859;29;20493;-71
2021/12/11 01:08:47;;;;;;;2.75;1.92;;;;;;;0.59;100.00;94560.59;1026456;28;20027;-71
2021/12/11 01:09:20;;;;;;;3.24;1.66;;;;;;;0.62;100.00;94562.72;1030944;28;20728;-71
2021/12/11 01:09:54;;;;;;;4.50;2.50;;;;;;;0.62;100.00;94565.28;1018926;29;20507;-72
2021/12/11 01:10:27;;;;;;;4.46;2.10;;;;;;;0.53;100.00;94552.97;1027520;28;20492;-73
2021/12/11 01:11:25;;;;;;;3.58;2.08;;;;;;;0.56;100.00;94568.00;1022198;29;20070;-71
2021/12/11 01:12:11;;;;;;;6.60;2.42;;;;;;;0.45;100.00;94554.91;1026641;28;20830;-71
2021/12/11 01:12:50;;;;;;;4.56;3.24;;;;;;;0.51;100.00;94571.28;1028482;28;20400;-72
2021/12/11 01:13:25;;;;;;;3.56;2.12;;;;;;;0.51;100.00;94566.13;1026787;28;20532;-71
2021/12/11 01:14:23;;;;;;;3.54;2.20;;;;;;;0.50;100.00;94568.91;1021834;28;20019;-72
2021/12/11 01:15:07;;;;;;;4.80;2.16;;;;;;;0.39;100.00;94550.66;1022280;28;20050;-71
2021/12/11 01:15:49;;;;;;;5.76;2.32;;;;;;;0.50;100.00;94567.09;1031383;28;20034;-71
2021/12/11 01:16:21;;;;;;;2.94;2.10;;;;;;;0.53;100.00;94571.81;1025540;28;20090;-71
2021/12/11 01:17:01;;;;;;;3.50;1.86;;;;;;;0.54;100.00;94565.66;1026678;28;20081;-70
2021/12/11 01:17:41;;;;;;;4.04;2.34;;;;;;;0.55;100.00;94571.59;1026833;28;20242;-72
2021/12/11 01:18:50;;;;;;;4.10;2.24;;;;;;;0.60;100.00;94564.72;1029703;28;20031;-71
2021/12/11 01:19:22;;;;;;;5.20;2.22;;;;;;;0.60;100.00;94571.69;1030694;28;20080;-72
2021/12/11 01:19:59;;;;;;;2.98;2.14;;;;;;;0.59;100.00;94576.06;1030814;28;20034;-70
2021/12/11 01:20:57;;;;;;;3.16;1.96;;;;;;;0.59;100.00;94573.50;1030206;28;20030;-71
2021/12/11 01:22:33;;;;;;;2.30;1.66;;;;;;;0.57;100.00;94575.53;1026565;28;20022;-70
2021/12/11 01:23:15;;;;;;;3.10;1.74;;;;;;;0.43;100.00;94563.88;1024860;28;20454;-71
2021/12/11 01:23:57;;;;;;;5.18;1.82;;;;;;;0.49;100.00;94578.44;1028381;28;20117;-72
2021/12/11 01:24:42;;;;;;;6.04;2.24;;;;;;;0.54;100.00;94581.16;1031974;28;20096;-72
2021/12/11 01:25:23;;;;;;;4.64;2.02;;;;;;;0.52;100.00;94580.56;1030639;28;20015;-71
2021/12/11 01:25:57;;;;;;;4.50;2.50;;;;;;;0.50;100.00;94581.81;1030620;28;20040;-71
2021/12/11 01:26:28;;;;;;;4.84;2.08;;;;;;;0.47;100.00;94581.28;1026713;28;20102;-72
2021/12/11 01:27:01;;;;;;;4.60;2.20;;;;;;;0.47;100.00;94580.50;1022772;29;20023;-72
2021/12/11 01:27:31;;;;;;;2.98;2.40;;;;;;;0.46;100.00;94579.69;1021592;28;20037;-72
2021/12/11 01:28:04;;;;;;;2.13;1.92;;;;;;;0.46;100.00;94586.66;1022881;29;20161;-70
2021/12/11 01:28:35;;;;;;;3.58;2.16;;;;;;;0.50;100.00;94590.34;1024077;28;20019;-73
2021/12/11 01:29:06;;;;;;;4.00;2.00;;;;;;;0.52;100.00;94584.97;1030903;28;20512;-73
2021/12/11 01:29:36;;;;;;;3.08;1.98;;;;;;;0.51;100.00;94591.91;1030579;28;20038;-73
2021/12/11 01:30:11;;;;;;;3.10;1.88;;;;;;;0.54;100.00;94591.47;1030827;28;20093;-73
2021/12/11 01:30:42;;;;;;;2.80;2.02;;;;;;;0.55;100.00;94587.09;1024943;28;20488;-74
2021/12/11 01:31:13;;;;;;;7.32;2.10;;;;;;;0.52;100.00;94582.38;1027793;28;20018;-71
2021/12/11 01:31:44;;;;;;;4.02;2.02;;;;;;;0.53;100.00;94595.03;1026498;28;20027;-72
2021/12/11 01:32:15;;;;;;;3.03;2.20;;;;;;;0.52;100.00;94598.66;1022935;28;20050;-70
2021/12/11 01:32:45;;;;;;;4.40;1.80;;;;;;;0.52;100.00;94592.69;1020015;28;20465;-71
2021/12/11 01:33:16;;;;;;;3.55;2.08;;;;;;;0.43;100.00;94580.13;1021008;28;20549;-71
2021/12/11 01:33:46;;;;;;;2.10;1.90;;;;;;;0.50;100.00;94592.13;1026620;28;20038;-70
2021/12/11 01:34:17;;;;;;;2.15;1.95;;;;;;;0.46;100.00;94584.06;1030724;28;20038;-70
2021/12/11 01:34:47;;;;;;;5.20;2.00;;;;;;;0.49;100.00;94593.16;1025824;28;20038;-70
2021/12/11 01:35:18;;;;;;;2.83;1.90;;;;;;;0.49;100.00;94599.09;1026745;28;20038;-71
2021/12/11 01:35:48;;;;;;;4.20;2.10;;;;;;;0.53;100.00;94599.41;1026587;28;20473;-73
2021/12/11 01:36:19;;;;;;;3.75;1.73;;;;;;;0.51;100.00;94601.47;1026781;28;20110;-72
2021/12/11 01:36:50;;;;;;;2.38;2.17;;;;;;;0.52;100.00;94597.88;1030365;28;20065;-70
2021/12/11 01:37:20;;;;;;;3.46;2.12;;;;;;;0.51;100.00;94601.47;1026331;28;20447;-70
2021/12/11 01:37:58;;;;;;;3.60;2.22;;;;;;;0.47;100.00;94601.13;1026364;28;20039;-73
2021/12/11 01:38:30;;;;;;;2.70;1.84;;;;;;;0.53;100.00;94600.19;1022478;28;20028;-72
2021/12/11 01:39:03;;;;;;;2.30;1.94;;;;;;;0.34;100.00;94565.25;1022723;29;20027;-71
2021/12/11 01:39:36;;;;;;;4.30;1.92;;;;;;;0.56;100.00;94594.59;1024218;28;20083;-72
2021/12/11 01:40:10;;;;;;;2.72;1.72;;;;;;;0.47;100.00;94596.75;1020034;28;20039;-72
2021/12/11 01:40:42;;;;;;;4.54;2.38;;;;;;;0.59;100.00;94604.47;1026621;28;20029;-72
2021/12/11 01:41:32;;;;;;;2.98;1.82;;;;;;;0.58;100.00;94602.91;1026622;28;20381;-73
2021/12/11 01:42:33;;;;;;;4.38;1.90;;;;;;;0.59;100.00;94599.28;1025758;28;20126;-72
2021/12/11 01:43:04;;;;;;;2.13;1.48;;;;;;;0.55;100.00;94589.66;1026404;28;20038;-73
2021/12/11 01:43:36;;;;;;;3.26;2.10;;;;;;;0.57;100.00;94600.53;1036675;28;20451;-72
2021/12/11 01:44:13;;;;;;;3.40;1.68;;;;;;;0.55;100.00;94595.59;1034717;28;20087;-72
2021/12/11 01:44:44;;;;;;;3.42;2.10;;;;;;;0.54;100.00;94600.97;1026056;28;20481;-72
2021/12/11 01:45:15;;;;;;;2.58;2.08;;;;;;;0.46;100.00;94594.38;1018545;29;20040;-71
2021/12/11 01:45:47;;;;;;;3.58;1.70;;;;;;;0.53;100.00;94600.19;1026636;28;20258;-72
2021/12/11 01:46:21;;;;;;;4.22;1.88;;;;;;;0.53;100.00;94610.53;1026710;28;20127;-71
2021/12/11 01:46:59;;;;;;;2.86;1.82;;;;;;;0.47;100.00;94590.81;1029242;28;20146;-73
2021/12/11 01:47:33;;;;;;;3.94;1.86;;;;;;;0.58;100.00;94609.88;1030720;28;20077;-72
2021/12/11 01:48:04;;;;;;;5.56;1.80;;;;;;;0.55;100.00;94598.19;1030573;28;20032;-72
2021/12/11 01:48:45;;;;;;;2.10;1.60;;;;;;;0.53;100.00;94610.53;1030350;28;20505;-72
2021/12/11 01:49:19;;;;;;;4.56;2.20;;;;;;;0.52;100.00;94614.13;1024224;28;20031;-72
2021/12/11 01:49:51;;;;;;;2.32;1.66;;;;;;;0.56;100.00;94619.63;1026626;28;20121;-71
2021/12/11 01:50:28;;;;;;;2.62;1.64;;;;;;;0.55;100.00;94616.25;1024031;28;20039;-71
2021/12/11 01:51:09;;;;;;;5.54;1.70;;;;;;;0.56;100.00;94620.41;1026727;28;20424;-71
2021/12/11 01:51:46;;;;;;;4.08;1.52;;;;;;;0.56;100.00;94601.56;1029231;28;20564;-71
2021/12/11 01:52:31;;;;;;;3.56;2.24;;;;;;;0.44;100.00;94592.03;1029107;28;20054;-73
2021/12/11 01:53:01;;;;;;;2.26;1.66;;;;;;;0.57;100.00;94610.84;1030764;28;20038;-71
2021/12/11 01:53:38;;;;;;;2.83;1.95;;;;;;;0.57;100.00;94606.50;1024464;28;20023;-71
2021/12/11 01:54:16;;;;;;;3.42;1.78;;;;;;;0.61;100.00;94612.78;1025394;28;20030;-71
2021/12/11 01:54:47;;;;;;;4.02;1.90;;;;;;;0.56;100.00;94624.78;1029904;28;20033;-71
2021/12/11 01:55:25;;;;;;;2.10;1.88;;;;;;;0.59;100.00;94619.94;1032516;28;20029;-72
2021/12/11 01:56:01;;;;;;;1.98;1.48;;;;;;;0.60;100.00;94626.66;1033173;28;20019;-72
2021/12/11 01:56:32;;;;;;;1.80;1.54;;;;;;;0.59;100.00;94625.09;1025086;28;20645;-70
2021/12/11 01:57:12;;;;;;;3.46;1.70;;;;;;;0.49;100.00;94596.50;1026720;28;20030;-71
2021/12/11 01:57:47;;;;;;;2.78;1.75;;;;;;;0.52;100.00;94611.53;1018972;29;20027;-72
2021/12/11 01:58:25;;;;;;;3.64;1.70;;;;;;;0.57;100.00;94623.75;1026340;28;20440;-70
2021/12/11 01:59:05;;;;;;;3.34;1.64;;;;;;;0.59;100.00;94627.69;1022741;29;20023;-72
2021/12/11 01:59:38;;;;;;;1.50;1.40;;;;;;;0.52;100.00;94613.34;1019041;29;20031;-71
2021/12/11 02:00:15;;;;;;;3.04;1.92;;;;;;;0.50;100.00;94610.97;1023180;28;20034;-71
2021/12/11 02:00:49;;;;;;;2.10;1.82;;;;;;;0.54;100.00;94622.44;1033287;28;20026;-72
2021/12/11 02:01:23;;;;;;;4.26;2.06;;;;;;;0.55;100.00;94628.38;1031019;28;20033;-72
2021/12/11 02:02:08;;;;;;;3.84;1.70;;;;;;;0.47;100.00;94624.38;1022750;28;20020;-71
2021/12/11 02:02:42;;;;;;;4.04;1.72;;;;;;;0.46;100.00;94620.19;1027240;28;20050;-68
2021/12/11 02:03:19;;;;;;;4.38;1.70;;;;;;;0.54;100.00;94631.94;1034868;28;20342;-73
2021/12/11 02:03:51;;;;;;;2.30;1.62;;;;;;;0.57;100.00;94634.09;1030772;28;20022;-72
2021/12/11 02:04:23;;;;;;;2.06;1.58;;;;;;;0.60;100.00;94636.22;1029440;28;20035;-71
2021/12/11 02:04:56;;;;;;;2.44;1.70;;;;;;;0.57;100.00;94634.09;1022176;28;20070;-71
2021/12/11 02:05:29;;;;;;;3.14;2.62;;;;;;;0.51;100.00;94638.38;1023786;28;20487;-71
2021/12/11 02:06:02;;;;;;;5.28;2.36;;;;;;;0.45;100.00;94634.88;1026985;28;20031;-71
2021/12/11 02:06:38;;;;;;;4.06;1.90;;;;;;;0.46;100.00;94625.34;1030838;28;20380;-72
2021/12/11 02:07:14;;;;;;;1.94;1.40;;;;;;;0.58;100.00;94638.25;1030769;28;20461;-71
2021/12/11 02:07:47;;;;;;;2.92;1.80;;;;;;;0.45;100.00;94623.78;1028921;28;20057;-71
2021/12/11 02:08:28;;;;;;;3.96;1.60;;;;;;;0.52;100.00;94636.56;1033194;28;20531;-69
2021/12/11 02:09:10;;;;;;;2.30;1.86;;;;;;;0.56;100.00;94633.31;1023047;29;20019;-70
2021/12/11 02:09:43;;;;;;;3.66;1.98;;;;;;;0.56;100.00;94637.69;1027034;28;20523;-73
2021/12/11 02:10:26;;;;;;;2.90;1.68;;;;;;;0.47;100.00;94632.09;1026618;28;20077;-73
2021/12/11 02:11:03;;;;;;;5.12;1.84;;;;;;;0.50;100.00;94636.00;1031048;28;20108;-73
2021/12/11 02:11:33;;;;;;;1.66;1.10;;;;;;;0.63;100.00;94646.09;1022980;29;20041;-73
2021/12/11 02:12:04;;;;;;;3.35;1.88;;;;;;;0.60;100.00;94646.53;1021750;28;20042;-71
2021/12/11 02:12:38;;;;;;;2.38;1.50;;;;;;;0.62;100.00;94640.13;1024045;28;20050;-71
2021/12/11 02:13:12;;;;;;;2.32;1.64;;;;;;;0.56;100.00;94641.03;1028691;28;20500;-74
2021/12/11 02:13:52;;;;;;;3.90;2.14;;;;;;;0.49;100.00;94624.91;1035703;28;20033;-73
2021/12/11 02:14:27;;;;;;;5.25;2.35;;;;;;;0.54;100.00;94637.94;1031002;28;20041;-72
2021/12/11 02:15:00;;;;;;;2.32;1.22;;;;;;;0.58;100.00;94633.88;1026388;28;20151;-72
2021/12/11 02:15:37;;;;;;;2.26;1.66;;;;;;;0.53;100.00;94631.16;1026512;28;20035;-73
2021/12/11 02:16:19;;;;;;;3.70;2.00;;;;;;;0.57;100.00;94647.78;1029496;28;20027;-72
2021/12/11 02:16:49;;;;;;;2.60;1.62;;;;;;;0.54;100.00;94640.50;1026922;28;20053;-72
2021/12/11 02:17:26;;;;;;;2.80;1.77;;;;;;;0.46;100.00;94639.03;1023721;28;20034;-70
2021/12/11 02:18:00;;;;;;;2.48;1.90;;;;;;;0.46;100.00;94630.50;1021514;29;20027;-72
2021/12/11 02:18:35;;;;;;;3.18;1.62;;;;;;;0.57;100.00;94641.81;1024554;28;20027;-72
2021/12/11 02:19:18;;;;;;;4.82;1.94;;;;;;;0.56;100.00;94638.47;1025120;28;20058;-72
2021/12/11 02:19:49;;;;;;;2.46;1.66;;;;;;;0.54;100.00;94643.09;1031280;28;20041;-71
2021/12/11 02:20:28;;;;;;;4.28;2.03;;;;;;;0.49;100.00;94632.63;1028559;28;20507;-72
2021/12/11 02:21:11;;;;;;;4.38;1.78;;;;;;;0.60;100.00;94651.69;1034346;28;20060;-74
2021/12/11 02:22:02;;;;;;;5.10;1.64;;;;;;;0.64;100.00;94642.50;1026721;28;20042;-71
2021/12/11 02:22:38;;;;;;;3.05;1.63;;;;;;;0.60;100.00;94646.53;1019868;28;20107;-72
2021/12/11 02:23:08;;;;;;;3.08;1.78;;;;;;;0.63;100.00;94641.69;1027988;28;20023;-71
2021/12/11 02:23:42;;;;;;;4.04;1.90;;;;;;;0.53;100.00;94636.34;1035371;28;20034;-71
2021/12/11 02:24:15;;;;;;;3.63;2.00;;;;;;;0.62;100.00;94641.94;1035307;28;20109;-71
2021/12/11 02:24:49;;;;;;;4.16;1.56;;;;;;;0.54;100.00;94637.13;1030180;28;20495;-71
2021/12/11 02:25:25;;;;;;;2.32;1.68;;;;;;;0.51;100.00;94635.00;1030982;28;20073;-72
2021/12/11 02:26:00;;;;;;;2.34;1.54;;;;;;;0.54;100.00;94631.94;1030653;28;20388;-72
2021/12/11 02:26:32;;;;;;;4.34;1.86;;;;;;;0.49;100.00;94637.81;1027071;28;20035;-71
2021/12/11 02:27:26;;;;;;;4.32;1.68;;;;;;;0.55;100.00;94646.44;1022832;28;20043;-71
2021/12/11 02:28:03;;;;;;;1.96;1.48;;;;;;;0.49;100.00;94632.63;1018928;29;20040;-72
2021/12/11 02:28:46;;;;;;;3.58;2.34;;;;;;;0.63;100.00;94657.19;1018950;28;20080;-72
2021/12/11 02:29:37;;;;;;;3.38;1.78;;;;;;;0.54;100.00;94637.13;1031021;28;20026;-72
2021/12/11 02:30:23;;;;;;;2.20;1.98;;;;;;;0.51;100.00;94638.38;1031226;28;20022;-71
2021/12/11 02:31:05;;;;;;;3.10;1.84;;;;;;;0.51;100.00;94638.38;1031550;28;20034;-71
2021/12/11 02:31:43;;;;;;;3.88;2.10;;;;;;;0.59;100.00;94658.66;1026858;28;20037;-71
2021/12/11 02:32:16;;;;;;;6.00;2.38;;;;;;;0.57;100.00;94650.38;1027765;28;20041;-71
2021/12/11 02:33:25;;;;;;;3.06;1.90;;;;;;;0.58;100.00;94654.53;1030815;28;20032;-71
2021/12/11 02:34:09;;;;;;;5.48;2.12;;;;;;;0.50;100.00;94641.94;1030780;28;20109;-71
2021/12/11 02:34:47;;;;;;;5.34;2.16;;;;;;;0.58;100.00;94654.53;1029212;28;20057;-71
2021/12/11 02:35:25;;;;;;;4.20;1.84;;;;;;;0.58;100.00;94654.53;1035007;28;20041;-72
2021/12/11 02:35:58;;;;;;;2.12;1.54;;;;;;;0.61;100.00;94663.59;1027376;28;20129;-71
2021/12/11 02:36:32;;;;;;;3.56;2.04;;;;;;;0.45;100.00;94637.47;1024796;28;20110;-71
2021/12/11 02:37:11;;;;;;;3.74;2.28;;;;;;;0.52;100.00;94646.91;1028541;28;20444;-72
2021/12/11 02:37:51;;;;;;;2.46;1.92;;;;;;;0.53;100.00;94641.50;1034507;28;20040;-72
2021/12/11 02:38:27;;;;;;;2.95;2.05;;;;;;;0.59;100.00;94656.06;1033723;28;20025;-70
2021/12/11 02:39:05;;;;;;;4.06;2.20;;;;;;;0.56;100.00;94660.91;1027066;28;20035;-72
2021/12/11 02:39:57;;;;;;;4.36;1.70;;;;;;;0.60;100.00;94649.91;1027080;28;20030;-71
2021/12/11 02:40:48;;;;;;;2.60;1.98;;;;;;;0.60;100.00;94664.59;1028979;28;20094;-73
2021/12/11 02:41:50;;;;;;;4.80;2.02;;;;;;;0.55;100.00;94660.13;1030837;28;20037;-72
2021/12/11 02:42:23;;;;;;;2.72;1.80;;;;;;;0.58;100.00;94664.84;1033065;28;20478;-71
2021/12/11 02:42:56;;;;;;;3.46;1.94;;;;;;;0.56;100.00;94661.69;1035038;28;20019;-72
2021/12/11 02:43:44;;;;;;;3.26;2.18;;;;;;;0.58;100.00;94664.84;1034944;28;20034;-71
2021/12/11 02:44:30;;;;;;;3.12;1.74;;;;;;;0.57;100.00;94659.88;1033492;28;20022;-73
2021/12/11 02:45:26;;;;;;;3.72;2.28;;;;;;;0.56;100.00;94663.50;1026536;28;20050;-73
2021/12/11 02:46:04;;;;;;;3.72;1.80;;;;;;;0.44;100.00;94651.41;1029674;28;20022;-73
2021/12/11 02:47:00;;;;;;;6.52;1.84;;;;;;;0.58;100.00;94664.84;1030679;28;20034;-70
2021/12/11 02:47:38;;;;;;;7.08;2.04;;;;;;;0.63;100.00;94666.72;1022620;28;20027;-71
2021/12/11 02:48:38;;;;;;;3.38;1.94;;;;;;;0.54;100.00;94652.59;1030890;28;20613;-71
2021/12/11 02:49:13;;;;;;;4.78;2.40;;;;;;;0.53;100.00;94656.97;1023748;28;20034;-71
2021/12/11 02:49:48;;;;;;;3.50;2.14;;;;;;;0.38;100.00;94636.03;1022929;29;20023;-70
2021/12/11 02:50:29;;;;;;;4.56;2.22;;;;;;;0.58;100.00;94670.00;1025220;28;20065;-71
2021/12/11 02:51:05;;;;;;;3.40;2.18;;;;;;;0.59;100.00;94686.28;1033748;28;20065;-71
2021/12/11 02:52:00;;;;;;;3.96;2.10;;;;;;;0.63;100.00;94671.91;1033554;28;20112;-70
2021/12/11 02:52:40;;;;;;;4.00;2.30;;;;;;;0.60;100.00;94678.28;1025567;28;20493;-71
2021/12/11 02:53:22;;;;;;;3.40;2.20;;;;;;;0.57;100.00;94678.75;1027173;28;20082;-70
2021/12/11 02:54:03;;;;;;;3.74;2.26;;;;;;;0.59;100.00;94676.72;1034774;28;20076;-72
2021/12/11 02:54:40;;;;;;;2.48;1.90;;;;;;;0.58;100.00;94679.53;1030365;28;20409;-72